Time;durP1;ratioP1;P1;durP2;ratioP2;P2;SDS_P1;SDS_P2;PMS_P1;PMS_P2;Temp;Humidity;BMP_temperature;BMP_pressure;BME280_temperature;BME280_humidity;BME280_pressure;Samples;Min_cycle;Max_cycle;Signal;HPM_P1;HPM_P2
2022/07/01 00:00:23;;;;;;;6.50;5.57;;;;;;;17.87;73.60;93522.25;5093285;28;20020;-46
2022/07/01 00:02:48;;;;;;;7.97;6.00;;;;;;;17.97;73.37;93513.84;5093313;28;20024;-47
2022/07/01 00:05:13;;;;;;;7.00;5.65;;;;;;;17.96;73.72;93503.97;5092860;28;20024;-46
2022/07/01 00:07:39;;;;;;;5.43;4.93;;;;;;;17.80;73.49;93517.56;5093216;28;20027;-49
2022/07/01 00:10:05;;;;;;;12.00;5.45;;;;;;;17.59;73.96;93514.72;5092775;28;20043;-46
2022/07/01 00:12:30;;;;;;;6.05;5.45;;;;;;;17.56;74.54;93520.78;5093071;28;20107;-47
2022/07/01 00:14:56;;;;;;;8.63;6.47;;;;;;;17.53;74.52;93519.91;5091516;28;20421;-46
2022/07/01 00:17:21;;;;;;;10.85;6.10;;;;;;;17.67;74.77;93518.06;5103592;28;20079;-48
2022/07/01 00:19:48;;;;;;;10.23;6.22;;;;;;;17.68;74.08;93522.34;5112873;27;20448;-47
2022/07/01 00:22:14;;;;;;;8.63;6.75;;;;;;;17.50;74.78;93515.50;5113262;28;20504;-45
2022/07/01 00:24:39;;;;;;;9.38;6.22;;;;;;;17.38;75.59;93511.84;5112967;28;20024;-45
2022/07/01 00:27:04;;;;;;;6.25;5.65;;;;;;;17.49;74.88;93516.06;5112855;28;20027;-46
2022/07/01 00:29:30;;;;;;;11.48;6.40;;;;;;;17.53;74.78;93519.91;5112860;27;20095;-48
2022/07/01 00:31:55;;;;;;;6.65;5.80;;;;;;;17.41;75.72;93516.97;5112702;28;20015;-47
2022/07/01 00:34:21;;;;;;;7.10;6.28;;;;;;;17.46;74.91;93520.78;5112719;28;20024;-47
2022/07/01 00:36:46;;;;;;;6.47;5.78;;;;;;;17.41;75.10;93516.97;5112661;28;20030;-47
2022/07/01 00:39:12;;;;;;;10.23;6.78;;;;;;;17.50;75.17;93507.13;5112634;28;20023;-47
2022/07/01 00:41:37;;;;;;;15.05;7.47;;;;;;;17.30;76.31;93514.06;5112897;28;20031;-46
2022/07/01 00:44:03;;;;;;;10.43;6.45;;;;;;;17.32;75.84;93509.38;5098617;28;20489;-48
2022/07/01 00:46:29;;;;;;;7.95;5.65;;;;;;;17.19;76.42;93490.31;5092426;28;20024;-47
2022/07/01 00:48:56;;;;;;;8.70;5.70;;;;;;;17.51;75.69;93514.19;5092041;28;20112;-46
2022/07/01 00:51:22;;;;;;;13.55;5.68;;;;;;;17.63;74.58;93508.72;5091100;28;20070;-48
2022/07/01 00:53:47;;;;;;;8.45;5.60;;;;;;;17.56;74.57;93515.19;5090766;28;20074;-46
2022/07/01 00:56:13;;;;;;;7.18;6.13;;;;;;;17.44;74.72;93507.41;5091801;28;20028;-50
2022/07/01 00:58:39;;;;;;;8.05;6.25;;;;;;;17.44;74.52;93507.41;5091815;28;20031;-46
2022/07/01 01:01:05;;;;;;;5.85;4.78;;;;;;;17.57;73.09;93517.38;5092038;28;20070;-48
2022/07/01 01:03:30;;;;;;;6.97;5.50;;;;;;;17.53;73.09;93514.31;5092146;28;20024;-48
2022/07/01 01:05:56;;;;;;;8.93;5.53;;;;;;;17.49;73.19;93516.06;5090509;28;20024;-50
2022/07/01 01:08:22;;;;;;;10.88;6.05;;;;;;;17.44;73.41;93512.25;5091667;28;20085;-49
2022/07/01 01:10:48;;;;;;;6.70;5.97;;;;;;;17.15;74.23;93506.75;5091571;28;20020;-47
2022/07/01 01:13:14;;;;;;;8.45;6.13;;;;;;;16.84;75.07;93482.88;5090431;28;20024;-45
2022/07/01 01:15:39;;;;;;;7.28;6.10;;;;;;;17.14;74.74;93494.13;5091896;28;20047;-46
2022/07/01 01:18:06;;;;;;;8.27;6.22;;;;;;;17.11;74.92;93498.09;5107977;28;20185;-47
2022/07/01 01:20:38;;;;;;;12.35;5.90;;;;;;;17.16;75.31;93501.91;5111883;28;20092;-49
2022/07/01 01:23:04;;;;;;;8.05;5.47;;;;;;;17.25;73.45;93501.16;5112059;28;20439;-48
2022/07/01 01:25:33;;;;;;;6.22;5.35;;;;;;;17.18;72.77;93482.50;5112062;27;20034;-50
2022/07/01 01:28:00;;;;;;;7.97;6.72;;;;;;;17.36;72.01;93501.28;5111701;27;20034;-46
2022/07/01 01:30:26;;;;;;;8.48;5.18;;;;;;;17.42;72.18;93498.91;5111613;28;20027;-48
2022/07/01 01:32:52;;;;;;;6.88;5.65;;;;;;;17.39;72.11;93490.97;5111710;28;20032;-47
2022/07/01 01:35:18;;;;;;;6.07;5.50;;;;;;;17.45;72.15;93505.38;5111850;28;20537;-47
2022/07/01 01:37:43;;;;;;;6.15;5.53;;;;;;;17.12;73.65;93512.78;5111475;28;20116;-51
2022/07/01 01:40:10;;;;;;;6.63;5.93;;;;;;;17.28;72.82;93513.94;5098817;28;20032;-47
2022/07/01 01:42:36;;;;;;;7.45;5.57;;;;;;;17.13;73.13;93497.53;5091335;28;20023;-46
2022/07/01 01:45:02;;;;;;;8.35;5.72;;;;;;;17.00;73.63;93520.31;5091336;28;20499;-47
2022/07/01 01:47:28;;;;;;;11.60;5.68;;;;;;;16.72;75.33;93523.84;5089737;28;20039;-46
2022/07/01 01:49:53;;;;;;;7.18;6.28;;;;;;;16.55;75.99;93525.44;5091153;28;20416;-46
2022/07/01 01:52:19;;;;;;;7.78;5.90;;;;;;;16.38;76.88;93522.78;5089713;28;20024;-48
2022/07/01 01:54:44;;;;;;;7.38;6.05;;;;;;;16.38;77.22;93525.56;5091080;28;20035;-49
2022/07/01 01:57:10;;;;;;;12.50;8.52;;;;;;;16.34;78.17;93514.13;5091146;28;20484;-45
2022/07/01 01:59:36;;;;;;;10.57;8.32;;;;;;;16.46;77.76;93526.16;5091075;28;20036;-49
2022/07/01 02:02:01;;;;;;;17.60;9.45;;;;;;;16.59;76.81;93519.41;5091096;28;20012;-47
2022/07/01 02:04:27;;;;;;;6.55;5.95;;;;;;;16.71;76.02;93525.16;5091032;28;20527;-46
2022/07/01 02:06:53;;;;;;;6.72;6.10;;;;;;;16.82;74.72;93530.16;5090732;28;20151;-47
2022/07/01 02:09:18;;;;;;;7.95;6.43;;;;;;;16.74;73.79;93499.59;5090141;28;20036;-49
2022/07/01 02:11:44;;;;;;;6.40;5.63;;;;;;;16.76;72.95;93522.09;5090539;28;20114;-51
2022/07/01 02:14:09;;;;;;;10.73;6.70;;;;;;;16.72;73.57;93526.63;5090865;28;20039;-49
2022/07/01 02:16:35;;;;;;;11.00;7.10;;;;;;;16.45;74.84;93513.53;5094846;28;20023;-48
2022/07/01 02:19:00;;;;;;;7.93;6.70;;;;;;;16.23;76.12;93530.66;5110647;28;20588;-46
2022/07/01 02:21:26;;;;;;;8.48;6.47;;;;;;;16.22;76.06;93535.50;5111069;28;20027;-49
2022/07/01 02:23:52;;;;;;;9.07;6.50;;;;;;;16.20;75.93;93540.19;5111125;28;20089;-47
2022/07/01 02:26:18;;;;;;;11.63;6.78;;;;;;;16.42;74.73;93541.84;5110631;28;20039;-49
2022/07/01 02:28:44;;;;;;;12.32;5.85;;;;;;;16.27;75.22;93547.66;5110723;28;20113;-47
2022/07/01 02:31:09;;;;;;;7.10;5.53;;;;;;;16.45;75.32;93554.59;5110913;28;20055;-50
2022/07/01 02:33:35;;;;;;;11.93;6.22;;;;;;;16.55;74.17;93553.31;5110971;28;20092;-48
2022/07/01 02:36:00;;;;;;;8.30;7.10;;;;;;;16.60;73.78;93559.94;5101218;28;20051;-49
2022/07/01 02:38:26;;;;;;;7.47;6.75;;;;;;;16.43;74.69;93562.81;5090208;28;20117;-46
2022/07/01 02:40:51;;;;;;;7.07;6.15;;;;;;;16.28;75.31;93561.03;5090582;28;20028;-47
2022/07/01 02:43:18;;;;;;;7.32;6.63;;;;;;;16.18;75.59;93565.09;5090422;28;20425;-47
2022/07/01 02:45:43;;;;;;;7.43;6.13;;;;;;;16.19;75.20;93566.56;5090245;28;20024;-49
2022/07/01 02:48:09;;;;;;;7.88;6.65;;;;;;;16.11;75.53;93555.56;5090462;28;20036;-46
2022/07/01 02:50:34;;;;;;;8.20;6.32;;;;;;;16.04;75.77;93566.84;5090087;28;20028;-46
2022/07/01 02:53:00;;;;;;;13.57;6.50;;;;;;;15.99;75.74;93574.16;5090121;28;20032;-45
2022/07/01 02:55:25;;;;;;;8.38;6.30;;;;;;;16.03;75.85;93571.66;5090105;28;20024;-46
2022/07/01 02:57:51;;;;;;;7.45;6.60;;;;;;;15.81;75.74;93564.41;5090203;28;20020;-47
2022/07/01 03:00:18;;;;;;;7.55;6.43;;;;;;;15.94;76.21;93575.13;5090284;28;20031;-48
2022/07/01 03:02:43;;;;;;;7.57;6.10;;;;;;;16.05;75.35;93568.31;5090180;28;20398;-46
2022/07/01 03:05:10;;;;;;;15.88;6.32;;;;;;;16.28;74.72;93577.00;5090308;28;20024;-49
2022/07/01 03:07:36;;;;;;;11.27;5.97;;;;;;;16.17;74.40;93578.31;5090281;28;20098;-45
2022/07/01 03:10:03;;;;;;;6.18;5.55;;;;;;;16.14;74.23;93578.72;5090014;28;20028;-46
2022/07/01 03:12:29;;;;;;;5.97;5.32;;;;;;;16.25;73.38;93578.91;5090246;28;20081;-47
2022/07/01 03:14:56;;;;;;;6.05;5.45;;;;;;;16.22;74.13;93582.84;5090268;28;20020;-47
2022/07/01 03:17:23;;;;;;;8.43;6.18;;;;;;;16.23;74.49;93586.38;5089578;28;20536;-49
2022/07/01 03:19:49;;;;;;;9.15;5.95;;;;;;;16.26;74.23;93588.00;5091134;28;20113;-47
2022/07/01 03:22:14;;;;;;;6.78;6.18;;;;;;;16.37;73.61;93587.44;5093786;28;20028;-47
2022/07/01 03:24:40;;;;;;;9.45;5.90;;;;;;;16.24;73.72;93591.34;5093754;28;20031;-46
2022/07/01 03:27:06;;;;;;;6.70;5.82;;;;;;;16.25;74.36;93584.47;5093721;28;20036;-48
2022/07/01 03:29:31;;;;;;;8.80;6.50;;;;;;;16.30;74.44;93583.47;5093697;28;20024;-47
2022/07/01 03:31:57;;;;;;;13.70;7.13;;;;;;;16.20;75.03;93590.34;5100112;28;20027;-51
2022/07/01 03:34:22;;;;;;;7.32;6.53;;;;;;;15.93;76.44;93582.03;5114269;27;20061;-47
2022/07/01 03:36:48;;;;;;;7.82;6.57;;;;;;;15.93;76.51;93587.59;5114178;28;20054;-45
2022/07/01 03:39:13;;;;;;;9.90;6.55;;;;;;;15.89;75.67;93559.47;5114192;28;20027;-47
2022/07/01 03:41:39;;;;;;;6.72;6.03;;;;;;;16.23;74.80;93581.53;5114371;27;20076;-45
2022/07/01 03:44:05;;;;;;;16.83;7.47;;;;;;;16.17;74.99;93585.94;5114043;28;20099;-49
2022/07/01 03:46:31;;;;;;;7.65;6.43;;;;;;;16.12;75.47;93593.25;5113777;28;20024;-45
2022/07/01 03:48:58;;;;;;;7.03;5.45;;;;;;;16.04;75.65;93591.91;5113627;28;20028;-48
2022/07/01 03:51:23;;;;;;;7.07;6.10;;;;;;;16.21;74.67;93598.13;5113591;28;20024;-47
2022/07/01 03:56:33;;;;;;;9.48;7.35;;;;;;;16.48;74.11;93590.38;5112961;28;20097;-48
2022/07/01 03:58:58;;;;;;;10.07;8.00;;;;;;;16.57;73.84;93592.50;5113752;28;20058;-48
2022/07/01 04:01:24;;;;;;;9.48;7.60;;;;;;;16.40;74.87;93589.78;5113370;28;20420;-51
2022/07/01 04:03:49;;;;;;;10.93;8.20;;;;;;;16.41;75.70;93591.28;5113724;28;20022;-46
2022/07/01 04:06:15;;;;;;;10.82;7.97;;;;;;;16.39;76.52;93590.38;5113318;28;20481;-47
2022/07/01 04:08:40;;;;;;;8.00;7.25;;;;;;;16.43;76.67;93585.13;5113293;28;20104;-51
2022/07/01 04:11:08;;;;;;;9.07;7.68;;;;;;;16.50;76.60;93581.50;5113140;28;20035;-46
2022/07/01 04:13:34;;;;;;;10.80;7.30;;;;;;;16.62;76.20;93576.81;5113449;28;20035;-51
2022/07/01 04:16:00;;;;;;;10.85;7.28;;;;;;;16.74;75.91;93583.25;5113082;28;20039;-46
2022/07/01 04:18:26;;;;;;;12.57;7.50;;;;;;;16.82;76.68;93581.06;5112533;28;20040;-48
2022/07/01 04:23:35;;;;;;;10.05;8.10;;;;;;;16.79;76.04;93582.25;5113292;28;20080;-48
2022/07/01 04:26:02;;;;;;;8.50;7.65;;;;;;;16.89;75.87;93579.47;5113205;28;20451;-47
2022/07/01 04:28:27;;;;;;;10.32;7.75;;;;;;;17.10;74.87;93582.38;5113061;28;20432;-48
2022/07/01 04:30:53;;;;;;;11.07;8.27;;;;;;;17.06;75.39;93585.63;5112347;28;20028;-48
2022/07/01 04:33:18;;;;;;;9.68;8.43;;;;;;;16.99;76.42;93577.41;5112996;28;20512;-47
2022/07/01 04:35:43;;;;;;;9.93;8.23;;;;;;;17.05;76.76;93580.63;5113047;28;20047;-46
2022/07/01 04:38:09;;;;;;;8.88;7.05;;;;;;;17.24;76.68;93580.59;5112641;28;20412;-48
2022/07/01 04:40:35;;;;;;;12.05;6.93;;;;;;;17.26;77.12;93580.75;5112646;28;20020;-50
2022/07/01 04:43:00;;;;;;;8.18;6.82;;;;;;;17.31;76.95;93585.28;5112583;28;20031;-47
2022/07/01 04:45:26;;;;;;;9.18;7.70;;;;;;;17.36;77.66;93582.22;5112869;28;20110;-46
2022/07/01 04:47:51;;;;;;;8.48;7.50;;;;;;;17.48;76.38;93576.75;5112504;28;20444;-47
2022/07/01 04:50:17;;;;;;;9.95;7.65;;;;;;;17.59;76.16;93578.94;5112334;28;20028;-48
2022/07/01 04:52:42;;;;;;;16.33;6.97;;;;;;;17.60;76.50;93594.38;5112542;28;20027;-48
2022/07/01 04:55:08;;;;;;;11.25;6.53;;;;;;;17.67;76.32;93576.00;5112350;27;20535;-48
2022/07/01 04:57:34;;;;;;;15.15;7.13;;;;;;;17.75;76.41;93580.09;5112403;28;20084;-49
2022/07/01 04:59:59;;;;;;;8.60;6.90;;;;;;;17.83;76.43;93585.50;5112559;28;20023;-48
2022/07/01 05:02:24;;;;;;;17.73;7.53;;;;;;;17.87;76.89;93582.97;5112532;28;20016;-48
2022/07/01 05:04:50;;;;;;;13.50;7.35;;;;;;;17.98;77.01;93587.94;5112236;28;20023;-48
2022/07/01 05:07:27;;;;;;;7.93;6.40;;;;;;;18.07;76.97;93589.94;5112110;28;20024;-50
2022/07/01 05:09:54;;;;;;;7.65;6.95;;;;;;;18.20;77.23;93592.25;5112547;28;20053;-49
2022/07/01 05:12:20;;;;;;;6.78;6.18;;;;;;;18.29;77.48;93587.94;5112260;28;20084;-50
2022/07/01 05:14:45;;;;;;;8.43;6.07;;;;;;;18.42;77.36;93581.84;5111999;28;20031;-50
2022/07/01 05:17:11;;;;;;;8.80;6.07;;;;;;;18.56;77.37;93582.81;5111597;28;20026;-47
2022/07/01 05:22:20;;;;;;;9.98;7.05;;;;;;;18.77;76.93;93588.41;5112131;28;20092;-47
2022/07/01 05:24:45;;;;;;;12.63;6.97;;;;;;;18.91;76.48;93584.47;5102543;28;20028;-50
2022/07/01 05:27:11;;;;;;;8.88;7.30;;;;;;;19.02;75.51;93580.25;5091687;28;20586;-49
2022/07/01 05:29:36;;;;;;;10.68;7.05;;;;;;;19.00;75.41;93580.13;5091610;28;20526;-48
2022/07/01 05:32:02;;;;;;;7.03;6.38;;;;;;;18.96;76.50;93591.06;5091713;28;20474;-48
2022/07/01 05:34:27;;;;;;;8.07;7.28;;;;;;;19.04;76.39;93588.78;5091220;28;20239;-48
2022/07/01 05:36:53;;;;;;;10.50;6.45;;;;;;;19.13;76.05;93587.97;5091234;28;20031;-49
2022/07/01 05:39:18;;;;;;;9.43;6.97;;;;;;;19.25;74.60;93591.56;5091199;28;20032;-46
2022/07/01 05:41:45;;;;;;;9.95;6.97;;;;;;;19.30;74.04;93590.47;5091439;28;20020;-47
2022/07/01 05:44:10;;;;;;;27.05;7.88;;;;;;;19.44;74.15;93591.44;5091018;28;20156;-51
2022/07/01 05:46:36;;;;;;;13.25;7.15;;;;;;;19.48;74.60;93590.94;5090169;28;20031;-46
2022/07/01 05:49:02;;;;;;;28.17;8.43;;;;;;;19.55;75.70;93598.41;5091282;28;20473;-48
2022/07/01 05:51:28;;;;;;;17.38;8.10;;;;;;;19.67;76.38;93596.34;5091170;28;20032;-48
2022/07/01 05:53:54;;;;;;;17.70;8.77;;;;;;;19.77;76.95;93596.25;5090948;28;20500;-46
2022/07/01 05:56:20;;;;;;;14.82;7.53;;;;;;;19.81;78.01;93602.84;5091119;28;20109;-47
2022/07/01 05:58:45;;;;;;;10.98;7.72;;;;;;;19.83;77.60;93597.38;5091164;28;20085;-47
2022/07/01 06:01:11;;;;;;;9.07;8.00;;;;;;;19.95;77.34;93600.91;5091056;28;20024;-46
2022/07/01 06:03:37;;;;;;;10.93;7.32;;;;;;;20.14;78.19;93599.97;5091052;28;20101;-48
2022/07/01 06:06:02;;;;;;;8.13;6.75;;;;;;;20.26;76.83;93590.25;5090977;28;20028;-46
2022/07/01 06:08:28;;;;;;;12.73;7.93;;;;;;;20.20;77.45;93600.34;5090613;28;20394;-49
2022/07/01 06:10:53;;;;;;;15.68;7.47;;;;;;;20.26;77.42;93593.06;5090594;28;20024;-47
2022/07/01 06:13:19;;;;;;;9.77;6.80;;;;;;;20.46;76.63;93598.41;5090519;28;20028;-48
2022/07/01 06:15:44;;;;;;;7.28;6.53;;;;;;;20.54;75.89;93608.03;5090628;28;20023;-47
2022/07/01 06:18:10;;;;;;;7.60;6.82;;;;;;;20.66;73.62;93603.13;5107945;28;20047;-47
2022/07/01 06:20:35;;;;;;;7.93;6.85;;;;;;;20.80;73.16;93603.25;5105141;28;20059;-47
2022/07/01 06:23:02;;;;;;;7.35;6.20;;;;;;;20.90;72.32;93604.56;5090457;28;20055;-48
2022/07/01 06:25:27;;;;;;;9.98;5.95;;;;;;;21.01;71.72;93611.50;5090706;28;20028;-47
2022/07/01 06:27:53;;;;;;;9.95;5.25;;;;;;;21.08;70.01;93602.84;5090500;28;20085;-49
2022/07/01 06:30:19;;;;;;;9.65;6.63;;;;;;;21.29;68.97;93604.00;5090248;28;20036;-48
2022/07/01 06:32:44;;;;;;;12.48;7.22;;;;;;;21.31;69.74;93595.69;5090446;28;20058;-49
2022/07/01 06:35:10;;;;;;;10.65;9.15;;;;;;;21.36;69.97;93600.19;5090307;28;20035;-50
2022/07/01 06:37:35;;;;;;;18.25;13.57;;;;;;;21.40;69.41;93603.94;5090589;28;20031;-51
2022/07/01 06:40:05;;;;;;;12.30;9.45;;;;;;;21.53;68.25;93577.25;5090321;28;20032;-47
2022/07/01 06:42:31;;;;;;;10.18;7.10;;;;;;;21.85;67.49;93602.28;5090493;28;20016;-47
2022/07/01 06:44:56;;;;;;;17.45;9.48;;;;;;;21.92;67.72;93600.53;5090520;28;20031;-50
2022/07/01 06:47:22;;;;;;;7.00;5.90;;;;;;;22.02;68.39;93595.47;5090189;28;20410;-49
2022/07/01 06:49:48;;;;;;;29.55;15.38;;;;;;;22.07;65.80;93597.13;5090114;28;20035;-47
2022/07/01 06:52:13;;;;;;;24.35;14.30;;;;;;;22.19;66.02;93599.88;5090417;28;20058;-49
2022/07/01 06:54:39;;;;;;;18.27;9.18;;;;;;;22.26;67.15;93593.94;5091366;28;20050;-49
2022/07/01 06:57:05;;;;;;;8.07;5.53;;;;;;;22.36;65.96;93594.50;5094587;28;20034;-48
2022/07/01 06:59:31;;;;;;;7.32;5.55;;;;;;;22.46;65.33;93583.03;5094215;28;20414;-48
2022/07/01 07:01:56;;;;;;;5.35;4.72;;;;;;;22.54;64.50;93584.16;5094537;28;20060;-49
2022/07/01 07:04:22;;;;;;;5.15;4.50;;;;;;;22.56;63.99;93587.13;5094505;28;20031;-49
2022/07/01 07:06:47;;;;;;;6.60;5.07;;;;;;;22.76;64.35;93581.09;5094087;28;20433;-51
2022/07/01 07:09:13;;;;;;;11.02;5.32;;;;;;;22.70;65.72;93578.69;5094394;28;20035;-48
2022/07/01 07:11:38;;;;;;;5.35;4.82;;;;;;;22.79;64.67;93580.56;5094234;28;20028;-47
2022/07/01 07:14:04;;;;;;;4.82;4.15;;;;;;;22.82;63.37;93587.75;5094312;28;20027;-50
2022/07/01 07:16:29;;;;;;;8.93;4.63;;;;;;;22.83;62.55;93574.38;5094366;28;20032;-48
2022/07/01 07:18:55;;;;;;;5.32;4.45;;;;;;;22.92;61.47;93581.91;5093802;28;20048;-47
2022/07/01 07:21:20;;;;;;;5.35;4.60;;;;;;;23.20;61.54;93589.69;5093820;28;20028;-49
2022/07/01 07:23:45;;;;;;;5.85;4.15;;;;;;;23.57;62.02;93589.38;5093800;28;20020;-48
2022/07/01 07:26:11;;;;;;;8.15;4.35;;;;;;;24.04;61.63;93587.41;5093800;28;20024;-49
2022/07/01 07:28:37;;;;;;;6.97;3.90;;;;;;;24.48;57.98;93591.53;5093718;28;20516;-48
2022/07/01 07:31:02;;;;;;;7.10;3.65;;;;;;;25.07;57.56;93589.22;5093596;28;20048;-48
2022/07/01 07:33:28;;;;;;;6.65;4.10;;;;;;;25.82;53.46;93589.47;5093926;28;20024;-49
2022/07/01 07:35:53;;;;;;;6.18;3.90;;;;;;;26.51;52.76;93593.59;5093592;28;20506;-48
2022/07/01 07:38:19;;;;;;;4.90;3.72;;;;;;;27.15;49.03;93588.81;5093462;28;20039;-53
2022/07/01 07:40:44;;;;;;;3.75;3.45;;;;;;;28.01;48.81;93593.84;5093845;28;20024;-47
2022/07/01 07:43:10;;;;;;;7.65;3.33;;;;;;;28.85;46.55;93595.69;5093413;28;20043;-48
2022/07/01 07:45:35;;;;;;;5.95;3.58;;;;;;;29.60;44.76;93596.34;5093414;28;20020;-50
2022/07/01 07:48:01;;;;;;;3.85;3.38;;;;;;;30.42;43.10;93605.47;5093305;28;20023;-51
2022/07/01 07:50:27;;;;;;;6.45;3.58;;;;;;;30.82;40.37;93600.66;5093502;28;20158;-53
2022/07/01 07:52:52;;;;;;;4.47;2.90;;;;;;;31.49;38.96;93599.88;5093269;28;20160;-50
2022/07/01 07:55:18;;;;;;;5.82;3.30;;;;;;;32.29;38.42;93594.13;5093119;28;20028;-49
2022/07/01 07:57:44;;;;;;;4.03;3.50;;;;;;;32.94;37.33;93590.78;5093218;28;20030;-51
2022/07/01 08:00:11;;;;;;;3.67;3.15;;;;;;;33.64;36.78;93596.59;5093001;28;20154;-51
2022/07/01 08:02:37;;;;;;;4.72;3.15;;;;;;;34.40;35.21;93595.84;5093083;28;20032;-56
2022/07/01 08:05:38;;;;;;;3.25;2.80;;;;;;;34.64;33.50;93591.03;5093337;28;20039;-52
2022/07/01 08:08:04;;;;;;;3.67;3.25;;;;;;;35.34;33.53;93590.66;5092857;28;20073;-49
2022/07/01 08:10:30;;;;;;;8.45;3.10;;;;;;;35.73;32.00;93586.47;5092821;28;20032;-49
2022/07/01 08:12:56;;;;;;;4.63;4.22;;;;;;;36.10;29.90;93592.28;5097278;28;20103;-50
2022/07/01 08:15:22;;;;;;;4.00;2.30;;;;;;;35.24;29.36;93587.03;5113166;27;20024;-50
2022/07/01 08:17:48;;;;;;;3.67;2.10;;;;;;;35.08;29.67;93586.97;5112806;28;20080;-48
2022/07/01 08:20:14;;;;;;;5.70;2.22;;;;;;;35.11;30.21;93594.88;5111802;28;20035;-49
2022/07/01 08:22:39;;;;;;;4.28;2.45;;;;;;;35.96;30.44;93589.41;5113207;28;20032;-50
2022/07/01 08:25:05;;;;;;;3.47;3.17;;;;;;;36.65;29.25;93581.47;5112982;28;20024;-53
2022/07/01 08:27:30;;;;;;;2.67;1.70;;;;;;;37.24;28.91;93594.28;5113200;28;20053;-52
2022/07/01 08:29:56;;;;;;;7.93;2.80;;;;;;;37.74;28.23;93593.34;5112888;28;20050;-50
2022/07/01 08:32:24;;;;;;;3.35;2.28;;;;;;;37.97;27.09;93586.00;5112750;28;20027;-50
2022/07/01 08:34:50;;;;;;;2.15;1.98;;;;;;;38.30;26.44;93595.88;5112807;28;20030;-49
2022/07/01 08:37:15;;;;;;;2.95;2.33;;;;;;;38.64;26.14;93589.06;5113036;28;20032;-51
2022/07/01 08:39:40;;;;;;;1.60;1.50;;;;;;;38.91;25.17;93586.66;5112988;28;20511;-49
2022/07/01 08:42:07;;;;;;;4.25;3.70;;;;;;;39.18;24.54;93584.97;5112645;28;20491;-49
2022/07/01 08:44:32;;;;;;;3.70;3.10;;;;;;;39.36;24.98;93582.56;5112643;28;20032;-51
2022/07/01 08:46:58;;;;;;;12.63;9.57;;;;;;;39.62;24.31;93589.47;5112594;28;20030;-50
2022/07/01 08:49:23;;;;;;;17.98;12.95;;;;;;;39.71;23.45;93582.84;5112617;28;20031;-48
2022/07/01 08:51:49;;;;;;;4.32;2.67;;;;;;;38.59;24.50;93581.91;5112717;28;20027;-51
2022/07/01 08:54:14;;;;;;;4.55;2.25;;;;;;;37.53;25.72;93578.34;5112733;28;20492;-49
2022/07/01 08:56:46;;;;;;;2.72;1.80;;;;;;;36.98;25.97;93580.69;5112698;28;20110;-48
2022/07/01 08:59:13;;;;;;;3.10;2.30;;;;;;;37.36;25.99;93585.59;5112330;28;20023;-49
2022/07/01 09:01:39;;;;;;;6.18;4.22;;;;;;;37.89;28.07;93586.06;5112517;28;20056;-50
2022/07/01 09:04:13;;;;;;;3.78;2.75;;;;;;;38.30;26.14;93583.63;5112285;28;20073;-48
2022/07/01 09:06:40;;;;;;;8.85;3.67;;;;;;;38.61;26.65;93579.75;5112127;28;20488;-49
2022/07/01 09:09:12;;;;;;;4.80;2.20;;;;;;;38.70;26.23;93573.91;5108353;28;20022;-50
2022/07/01 09:11:43;;;;;;;3.88;3.58;;;;;;;39.12;25.04;93573.44;5091928;28;20478;-50
2022/07/01 09:14:11;;;;;;;6.28;4.75;;;;;;;39.56;24.38;93575.84;5091643;28;20063;-48
2022/07/01 09:16:55;;;;;;;3.33;2.00;;;;;;;39.46;25.36;93578.84;5096025;28;20030;-48
2022/07/01 09:19:21;;;;;;;4.53;2.55;;;;;;;38.81;24.75;93572.34;5111638;28;20516;-48
2022/07/01 09:21:51;;;;;;;3.10;2.45;;;;;;;38.88;23.45;93577.31;5112253;27;20080;-50
2022/07/01 09:24:33;;;;;;;3.33;2.45;;;;;;;39.44;25.53;93583.91;5111004;28;20476;-49
2022/07/01 09:27:01;;;;;;;3.10;2.45;;;;;;;39.66;25.01;93578.56;5112168;28;20102;-48
2022/07/01 09:29:32;;;;;;;3.50;3.03;;;;;;;39.51;25.39;93583.09;5112141;28;20046;-49
2022/07/01 09:31:59;;;;;;;6.55;3.05;;;;;;;40.03;23.76;93584.56;5111991;28;20833;-51
2022/07/01 09:34:24;;;;;;;2.85;2.63;;;;;;;40.03;23.34;93567.22;5112100;28;20054;-51
2022/07/01 09:36:57;;;;;;;3.60;3.20;;;;;;;40.23;23.43;93583.53;5111884;28;20024;-52
2022/07/01 09:39:23;;;;;;;5.55;2.83;;;;;;;39.95;23.63;93578.88;5111663;28;20500;-51
2022/07/01 09:41:49;;;;;;;3.47;2.58;;;;;;;40.04;23.97;93574.44;5111466;28;20048;-50
2022/07/01 09:44:14;;;;;;;5.68;4.00;;;;;;;40.22;23.90;93565.47;5111486;28;20068;-49
2022/07/01 09:46:55;;;;;;;2.47;2.20;;;;;;;40.58;21.89;93572.84;5111370;28;20023;-50
2022/07/01 09:49:21;;;;;;;2.78;2.45;;;;;;;40.33;22.93;93580.50;5111660;28;20070;-47
2022/07/01 09:51:49;;;;;;;5.32;2.70;;;;;;;40.58;22.63;93575.75;5111583;28;20028;-46
2022/07/01 09:54:14;;;;;;;;;;;;;;;40.65;23.05;93563.31;5110657;28;20049;-49
2022/07/01 09:56:39;;;;;;;14.17;3.30;;;;;;;40.56;20.77;93562.03;5111245;28;19907;-50
2022/07/01 09:59:05;;;;;;;3.08;2.75;;;;;;;40.33;20.58;93560.25;5110345;28;20511;-49
2022/07/01 10:01:32;;;;;;;6.75;3.40;;;;;;;40.72;20.55;93561.00;5110267;28;20453;-47
2022/07/01 10:03:58;;;;;;;4.20;2.95;;;;;;;40.23;20.59;93555.34;5111165;28;20500;-45
2022/07/01 10:06:33;;;;;;;3.58;3.15;;;;;;;40.26;23.12;93553.84;5098624;28;20055;-46
2022/07/01 10:09:10;;;;;;;4.03;2.78;;;;;;;40.69;22.16;93556.75;5090706;28;20497;-48
2022/07/01 10:11:42;;;;;;;4.25;3.13;;;;;;;40.46;21.62;93552.81;5090906;28;20055;-49
2022/07/01 10:14:10;;;;;;;3.30;2.97;;;;;;;40.46;21.36;93547.03;5090563;28;20740;-48
2022/07/01 10:16:36;;;;;;;;;;;;;;;39.11;21.72;93548.91;5095342;28;20159;-49
2022/07/01 10:19:20;;;;;;;3.55;3.20;;;;;;;38.43;24.93;93556.09;5109501;28;19919;-47
2022/07/01 10:21:45;;;;;;;4.60;3.35;;;;;;;37.65;26.00;93549.44;5110867;28;20072;-51
2022/07/01 10:24:20;;;;;;;4.00;3.65;;;;;;;36.72;27.10;93551.97;5110707;28;20028;-48
2022/07/01 10:26:46;;;;;;;26.60;23.55;;;;;;;36.15;26.93;93548.44;5111175;28;20051;-49
2022/07/01 10:29:38;;;;;;;7.68;6.50;;;;;;;34.93;29.67;93554.59;5110358;28;20519;-48
2022/07/01 10:32:27;;;;;;;17.55;14.45;;;;;;;34.30;29.87;93554.22;5108700;28;20046;-49
2022/07/01 10:35:03;;;;;;;9.82;5.30;;;;;;;33.27;32.56;93551.81;5111053;28;20099;-48
2022/07/01 10:37:29;;;;;;;5.30;4.78;;;;;;;32.96;34.31;93565.03;5110674;28;20480;-48
2022/07/01 10:40:01;;;;;;;6.38;4.13;;;;;;;32.32;36.20;93559.16;5110998;28;20030;-50
2022/07/01 10:42:37;;;;;;;7.22;4.18;;;;;;;32.03;38.20;93568.72;5110597;28;20055;-49
2022/07/01 10:45:08;;;;;;;5.03;4.22;;;;;;;31.57;39.66;93571.50;5110912;28;20522;-47
2022/07/01 10:47:34;;;;;;;4.85;4.45;;;;;;;31.34;40.79;93561.78;5110613;28;20126;-48
2022/07/01 10:50:15;;;;;;;6.10;4.60;;;;;;;31.14;41.69;93561.41;5110517;28;20020;-48
2022/07/01 10:53:02;;;;;;;4.75;4.35;;;;;;;30.80;41.19;93557.84;5110910;28;20023;-49
2022/07/01 10:55:38;;;;;;;5.38;4.60;;;;;;;31.21;43.55;93567.94;5110269;28;20039;-53
2022/07/01 10:58:03;;;;;;;5.32;3.80;;;;;;;31.90;38.48;93567.75;5110437;28;20034;-54
2022/07/01 11:00:32;;;;;;;4.53;4.13;;;;;;;32.50;37.60;93568.03;5110481;28;20032;-51
2022/07/01 11:03:14;;;;;;;;;;;;;;;32.26;34.04;93558.34;5095867;28;20035;-50
2022/07/01 11:05:41;;;;;;;4.70;4.30;;;;;;;32.13;32.64;93563.16;5090079;28;19914;-54
2022/07/01 11:08:07;;;;;;;5.13;4.18;;;;;;;32.44;34.46;93570.03;5090398;28;20059;-49
2022/07/01 11:10:33;;;;;;;4.20;3.80;;;;;;;32.47;33.28;93563.69;5089957;28;20036;-49
2022/07/01 11:13:00;;;;;;;3.92;3.53;;;;;;;32.69;30.69;93578.28;5089988;28;20034;-50
2022/07/01 11:15:27;;;;;;;4.32;3.80;;;;;;;32.46;30.31;93576.50;5089922;28;20485;-49
2022/07/01 11:17:55;;;;;;;3.97;3.67;;;;;;;31.87;31.76;93574.13;5104810;28;20057;-57
2022/07/01 11:20:23;;;;;;;7.57;4.75;;;;;;;30.78;34.88;93565.63;5110224;28;20031;-50
2022/07/01 11:22:49;;;;;;;5.60;5.10;;;;;;;30.14;36.94;93588.44;5109402;28;20416;-55
2022/07/01 11:25:14;;;;;;;9.05;4.72;;;;;;;29.69;36.16;93597.28;5110193;28;20024;-47
2022/07/01 11:27:40;;;;;;;8.30;5.15;;;;;;;29.04;38.25;93591.97;5110207;28;20019;-48
2022/07/01 11:30:12;;;;;;;5.45;4.95;;;;;;;28.28;40.13;93582.66;5110497;28;20039;-50
2022/07/01 11:32:43;;;;;;;10.27;5.28;;;;;;;27.76;41.56;93586.66;5110044;28;20076;-47
2022/07/01 11:40:58;;;;;;;5.75;5.18;;;;;;;27.22;43.42;93585.56;5112172;28;20118;-48
2022/07/01 11:43:29;;;;;;;5.73;5.20;;;;;;;27.07;41.13;93574.38;5113830;28;20042;-48